Aviation Digital Data Service (ADDS)

Output produced by METARs form (0419 UTC 19 February 2019)
found at http://www.aviationweather.gov/metar/data/
 
Forecast for: TGPY (POINT SALINES , GD)
Text: TGPY 190400Z 1906/2006 09012KT 9999 SCT020
Forecast period: 0600 UTC 19 February 2019 to 0600 UTC 20 February 2019
Forecast type: FROM: standard forecast or significant change
Winds: from the E (90 degrees) at 14 MPH (12 knots; 6.2 m/s)
Visibility: 6 or more miles 10+ km)
Ceiling: at least 12,000 feet AGL
Clouds: scattered clouds at 2000 feet AGL
Weather: no significant weather forecast for this period